Time;durP1;ratioP1;P1;durP2;ratioP2;P2;SDS_P1;SDS_P2;PMS_P1;PMS_P2;Temp;Humidity;BMP_temperature;BMP_pressure;BME280_temperature;BME280_humidity;BME280_pressure;Samples;Min_cycle;Max_cycle;Signal;HPM_P1;HPM_P2
2022/06/23 00:02:21;;;;;;;5.97;3.77;;;19.20;99.90;;;;;;5055152;28;20531;-56
2022/06/23 00:04:49;;;;;;;4.90;4.60;;;19.10;99.90;;;;;;5054844;28;20955;-56
2022/06/23 00:07:20;;;;;;;4.90;3.70;;;19.00;99.90;;;;;;5054892;28;20881;-56
2022/06/23 00:09:52;;;;;;;6.80;4.17;;;19.00;99.90;;;;;;5054738;28;20895;-56
2022/06/23 00:12:31;;;;;;;4.73;4.07;;;19.00;99.90;;;;;;5054683;28;20456;-57
2022/06/23 00:15:17;;;;;;;6.67;5.07;;;18.90;99.90;;;;;;5054786;28;20518;-57
2022/06/23 00:17:48;;;;;;;4.80;3.90;;;18.90;99.90;;;;;;5054687;28;20543;-56
2022/06/23 00:20:17;;;;;;;5.00;4.20;;;18.90;99.90;;;;;;5054601;28;20444;-57
2022/06/23 00:22:46;;;;;;;5.00;4.60;;;18.90;99.90;;;;;;5054745;28;20453;-57
2022/06/23 00:25:27;;;;;;;5.13;4.73;;;18.90;99.90;;;;;;5054640;28;20502;-56
2022/06/23 00:27:54;;;;;;;4.57;4.17;;;18.80;99.90;;;;;;5054759;28;20947;-57
2022/06/23 00:30:23;;;;;;;4.07;3.77;;;18.80;99.90;;;;;;5054359;28;20448;-57
2022/06/23 00:32:51;;;;;;;7.13;4.00;;;18.80;99.90;;;;;;5054231;28;20557;-56
2022/06/23 00:35:19;;;;;;;4.40;3.80;;;18.80;99.90;;;;;;5054377;28;20445;-57
2022/06/23 00:37:49;;;;;;;5.10;4.57;;;18.80;99.90;;;;;;5054381;28;20450;-57
2022/06/23 00:40:18;;;;;;;3.90;3.60;;;18.90;99.90;;;;;;5054332;28;20455;-57
2022/06/23 00:42:52;;;;;;;4.67;4.17;;;18.90;99.90;;;;;;5053821;28;20443;-56
2022/06/23 00:45:23;;;;;;;3.77;3.57;;;18.90;99.90;;;;;;5054263;28;20480;-56
2022/06/23 00:47:57;;;;;;;8.43;4.80;;;18.90;99.90;;;;;;5054211;28;20452;-57
2022/06/23 00:50:29;;;;;;;5.03;4.60;;;18.90;99.90;;;;;;5054329;28;20448;-56
2022/06/23 00:53:00;;;;;;;4.30;4.00;;;18.90;99.90;;;;;;5054219;28;20458;-57
2022/06/23 00:55:40;;;;;;;4.30;3.97;;;18.80;99.90;;;;;;5053899;28;20452;-57
2022/06/23 00:58:17;;;;;;;7.40;4.37;;;18.80;99.90;;;;;;5054079;28;20452;-57
2022/06/23 01:00:44;;;;;;;4.47;4.07;;;18.90;99.90;;;;;;5053870;28;20452;-57
2022/06/23 01:03:18;;;;;;;4.10;3.80;;;18.80;99.90;;;;;;5053696;28;20549;-57
2022/06/23 01:05:50;;;;;;;3.80;3.60;;;18.70;99.90;;;;;;5053793;28;20453;-57
2022/06/23 01:08:28;;;;;;;5.00;4.57;;;18.80;99.90;;;;;;5053593;28;20571;-57
2022/06/23 01:11:01;;;;;;;4.40;3.97;;;18.80;99.90;;;;;;5053747;28;20448;-56
2022/06/23 01:13:35;;;;;;;4.40;4.10;;;18.80;99.90;;;;;;5053683;28;20456;-57
2022/06/23 01:16:17;;;;;;;4.17;3.70;;;18.80;99.90;;;;;;5053868;28;20505;-57
2022/06/23 01:18:53;;;;;;;6.60;4.27;;;18.80;99.90;;;;;;5053891;28;20444;-57
2022/06/23 01:21:23;;;;;;;4.17;3.80;;;18.80;99.90;;;;;;5053773;28;20538;-57
2022/06/23 01:24:00;;;;;;;6.50;3.57;;;18.90;99.90;;;;;;5053198;28;20575;-57
2022/06/23 01:26:53;;;;;;;4.50;4.10;;;18.90;99.90;;;;;;5053097;28;20543;-57
2022/06/23 01:29:26;;;;;;;4.47;4.07;;;18.90;99.90;;;;;;5053505;28;20449;-58
2022/06/23 01:31:57;;;;;;;4.20;3.83;;;19.00;99.90;;;;;;5053391;28;20884;-55
2022/06/23 01:34:31;;;;;;;8.70;4.60;;;18.90;99.90;;;;;;5053653;28;20452;-57
2022/06/23 01:37:03;;;;;;;4.00;3.67;;;18.90;99.90;;;;;;5053233;28;20457;-57
2022/06/23 01:39:38;;;;;;;4.50;4.10;;;18.90;99.90;;;;;;5053136;28;20445;-56
2022/06/23 01:42:15;;;;;;;4.00;3.70;;;18.90;99.90;;;;;;5053240;28;20422;-56
2022/06/23 01:44:51;;;;;;;4.37;4.03;;;18.90;99.90;;;;;;5053137;28;20835;-57
2022/06/23 01:47:29;;;;;;;5.07;4.67;;;18.90;99.90;;;;;;5053359;28;20514;-56
2022/06/23 01:50:05;;;;;;;5.57;4.10;;;18.80;99.90;;;;;;5053253;28;20458;-57
2022/06/23 01:52:31;;;;;;;5.87;3.83;;;18.80;99.90;;;;;;5053094;28;20452;-56
2022/06/23 01:55:14;;;;;;;4.20;3.90;;;18.80;99.90;;;;;;5052827;28;20758;-57
2022/06/23 01:57:45;;;;;;;4.73;4.00;;;18.90;99.90;;;;;;5052893;28;20448;-56
2022/06/23 02:00:18;;;;;;;4.20;3.80;;;18.80;99.90;;;;;;5052827;28;20530;-57
2022/06/23 02:02:52;;;;;;;7.70;4.27;;;18.80;99.90;;;;;;5052905;28;20509;-57
2022/06/23 02:05:33;;;;;;;4.30;4.00;;;18.70;99.90;;;;;;5052891;28;20973;-57
2022/06/23 02:08:07;;;;;;;4.47;4.07;;;18.70;99.90;;;;;;5052893;28;20535;-56
2022/06/23 02:10:41;;;;;;;4.00;3.77;;;18.70;99.90;;;;;;5052685;28;20498;-57
2022/06/23 02:13:17;;;;;;;4.07;3.77;;;18.70;99.90;;;;;;5052884;28;20539;-57
2022/06/23 02:15:56;;;;;;;4.70;4.30;;;18.60;99.90;;;;;;5052841;28;20535;-57
2022/06/23 02:18:29;;;;;;;4.50;4.20;;;18.60;99.90;;;;;;5052657;28;20517;-57
2022/06/23 02:21:06;;;;;;;5.03;4.07;;;18.60;99.90;;;;;;5052577;28;20543;-57
2022/06/23 02:23:39;;;;;;;8.00;4.83;;;18.50;99.90;;;;;;5052764;28;20487;-56
2022/06/23 02:26:14;;;;;;;9.47;4.03;;;18.30;99.90;;;;;;5052770;28;20427;-56
2022/06/23 02:28:45;;;;;;;5.07;4.30;;;18.00;99.90;;;;;;5052733;28;20951;-56
2022/06/23 02:31:20;;;;;;;5.77;4.10;;;18.00;99.90;;;;;;5052612;28;20535;-57
2022/06/23 02:33:53;;;;;;;4.50;3.67;;;17.90;99.90;;;;;;5052521;28;20535;-56
2022/06/23 02:36:33;;;;;;;6.07;4.20;;;18.00;99.90;;;;;;5053915;28;20994;-56
2022/06/23 02:39:03;;;;;;;5.33;3.13;;;18.00;99.90;;;;;;5056603;28;20459;-57
2022/06/23 02:41:34;;;;;;;6.70;3.80;;;17.90;99.90;;;;;;5056683;28;20951;-57
2022/06/23 02:44:26;;;;;;;5.90;3.97;;;17.80;99.90;;;;;;5056344;28;20501;-57
2022/06/23 02:47:18;;;;;;;4.03;3.73;;;17.70;99.90;;;;;;5056465;28;20846;-57
2022/06/23 02:50:03;;;;;;;5.50;4.60;;;17.70;99.90;;;;;;5056342;28;20448;-56
2022/06/23 02:53:00;;;;;;;5.80;4.70;;;17.50;99.90;;;;;;5056217;28;20933;-56
2022/06/23 02:55:42;;;;;;;5.13;4.60;;;17.30;99.90;;;;;;5056286;28;20943;-56
2022/06/23 02:58:15;;;;;;;4.37;3.97;;;17.20;99.90;;;;;;5056497;28;20458;-57
2022/06/23 03:00:46;;;;;;;5.80;5.20;;;17.20;99.90;;;;;;5056296;28;20518;-57
2022/06/23 03:03:24;;;;;;;5.47;4.97;;;17.10;99.90;;;;;;5056105;28;20536;-57
2022/06/23 03:05:56;;;;;;;5.87;3.87;;;17.10;99.90;;;;;;5056077;28;20539;-56
2022/06/23 03:08:32;;;;;;;6.90;5.03;;;17.20;99.90;;;;;;5056084;28;20959;-56
2022/06/23 03:11:03;;;;;;;7.83;4.50;;;17.20;99.90;;;;;;5055854;28;20479;-57
2022/06/23 03:13:37;;;;;;;5.67;4.63;;;17.20;99.90;;;;;;5056037;28;20437;-56
2022/06/23 03:16:11;;;;;;;7.90;4.60;;;17.30;99.90;;;;;;5055951;28;20535;-57
2022/06/23 03:18:48;;;;;;;5.30;4.10;;;17.30;99.90;;;;;;5055807;28;20419;-57
2022/06/23 03:21:19;;;;;;;4.83;4.50;;;17.40;99.90;;;;;;5055621;28;20547;-57
2022/06/23 03:23:51;;;;;;;6.50;4.60;;;17.30;99.90;;;;;;5056045;28;20493;-57
2022/06/23 03:26:23;;;;;;;5.00;4.60;;;17.30;99.90;;;;;;5055834;28;20462;-57
2022/06/23 03:28:55;;;;;;;4.77;4.40;;;17.30;99.90;;;;;;5055643;28;20543;-57
2022/06/23 03:31:27;;;;;;;5.00;4.40;;;17.40;99.90;;;;;;5055564;28;20535;-56
2022/06/23 03:34:01;;;;;;;8.23;5.23;;;17.50;99.90;;;;;;5055328;28;20567;-56
2022/06/23 03:36:33;;;;;;;4.40;4.00;;;17.50;99.90;;;;;;5055674;28;20444;-56
2022/06/23 03:42:03;;;;;;;6.70;3.77;;;17.70;99.90;;;;;;5055341;28;20455;-54
2022/06/23 03:44:35;;;;;;;4.60;4.20;;;17.70;99.90;;;;;;5055227;28;20487;-57
2022/06/23 03:47:05;;;;;;;6.13;4.00;;;17.70;99.90;;;;;;5055125;28;20466;-57
2022/06/23 03:49:46;;;;;;;6.50;4.40;;;17.80;99.90;;;;;;5054759;28;20439;-56
2022/06/23 03:52:34;;;;;;;6.77;5.00;;;17.90;99.90;;;;;;5055203;28;20522;-57
2022/06/23 03:55:06;;;;;;;9.23;4.43;;;18.00;99.90;;;;;;5055047;28;20502;-57
2022/06/23 03:57:38;;;;;;;4.53;3.93;;;18.10;99.90;;;;;;5055119;28;20463;-56
2022/06/23 04:00:19;;;;;;;4.23;3.80;;;18.10;99.90;;;;;;5055069;28;20549;-54
2022/06/23 04:02:49;;;;;;;5.33;4.10;;;18.10;99.90;;;;;;5054865;28;20425;-57
2022/06/23 04:05:23;;;;;;;5.20;3.70;;;18.10;99.90;;;;;;5055230;28;20805;-55
2022/06/23 04:07:53;;;;;;;4.03;3.67;;;18.10;99.90;;;;;;5055008;28;20905;-57
2022/06/23 04:10:28;;;;;;;4.30;3.90;;;18.10;99.90;;;;;;5054867;28;20526;-57
2022/06/23 04:13:00;;;;;;;5.63;4.30;;;18.20;99.90;;;;;;5054883;28;20458;-57
2022/06/23 04:15:31;;;;;;;3.57;3.20;;;18.20;99.90;;;;;;5054557;28;20558;-56
2022/06/23 04:18:04;;;;;;;3.83;3.47;;;18.10;99.90;;;;;;5054854;28;20883;-57
2022/06/23 04:20:37;;;;;;;7.33;4.87;;;18.20;99.90;;;;;;5054634;28;20444;-57
2022/06/23 04:23:07;;;;;;;10.83;4.80;;;18.20;99.90;;;;;;5054708;28;20444;-57
2022/06/23 04:25:42;;;;;;;4.33;3.83;;;18.20;99.90;;;;;;5054542;28;20575;-57
2022/06/23 04:28:21;;;;;;;3.57;3.27;;;18.30;99.90;;;;;;5054386;28;20538;-57
2022/06/23 04:30:49;;;;;;;3.40;3.10;;;18.30;99.90;;;;;;5054731;28;20437;-56
2022/06/23 04:33:19;;;;;;;3.83;3.53;;;18.30;99.90;;;;;;5054444;28;20479;-57
2022/06/23 04:35:51;;;;;;;3.80;3.50;;;18.40;99.90;;;;;;5054621;28;20514;-56
2022/06/23 04:38:24;;;;;;;5.40;3.70;;;18.50;99.90;;;;;;5054233;28;20522;-57
2022/06/23 04:40:57;;;;;;;5.20;4.03;;;18.50;99.90;;;;;;5054115;28;20455;-56
2022/06/23 04:43:32;;;;;;;4.17;3.47;;;18.60;99.90;;;;;;5053941;28;20567;-56
2022/06/23 04:46:02;;;;;;;6.93;4.73;;;18.60;99.90;;;;;;5054212;28;20434;-57
2022/06/23 04:48:35;;;;;;;3.20;3.00;;;18.70;99.90;;;;;;5054501;28;20452;-57
2022/06/23 04:51:07;;;;;;;6.47;3.20;;;18.80;99.90;;;;;;5053918;28;20454;-57
2022/06/23 04:53:54;;;;;;;6.97;4.00;;;18.90;99.90;;;;;;5053932;28;20805;-57
2022/06/23 04:56:35;;;;;;;3.20;3.00;;;19.00;99.90;;;;;;5053804;28;20480;-56
2022/06/23 04:59:13;;;;;;;3.73;3.30;;;19.10;99.90;;;;;;5053681;28;20452;-56
2022/06/23 05:01:42;;;;;;;5.73;3.40;;;19.10;99.90;;;;;;5053933;28;20562;-57
2022/06/23 05:04:18;;;;;;;3.60;3.30;;;19.20;99.90;;;;;;5053818;28;20848;-57
2022/06/23 05:06:49;;;;;;;4.40;3.17;;;19.30;99.90;;;;;;5053770;28;20894;-56
2022/06/23 05:09:23;;;;;;;3.33;3.03;;;19.40;99.90;;;;;;5053603;28;20452;-57
2022/06/23 05:11:53;;;;;;;5.53;2.87;;;19.50;99.90;;;;;;5053389;28;20459;-56
2022/06/23 05:14:29;;;;;;;5.23;3.03;;;19.50;99.90;;;;;;5053641;28;20513;-57
2022/06/23 05:17:04;;;;;;;4.43;3.10;;;19.60;99.90;;;;;;5053588;28;20535;-57
2022/06/23 05:19:35;;;;;;;5.80;3.20;;;19.70;99.90;;;;;;5053552;28;20459;-56
2022/06/23 05:22:13;;;;;;;4.50;3.50;;;19.80;99.90;;;;;;5053361;28;20545;-56
2022/06/23 05:24:42;;;;;;;5.53;3.27;;;19.90;99.90;;;;;;5053178;28;20994;-57
2022/06/23 05:27:18;;;;;;;2.60;2.40;;;20.10;99.90;;;;;;5053535;28;20495;-56
2022/06/23 05:29:50;;;;;;;3.90;3.30;;;20.30;99.90;;;;;;5053465;28;20448;-57
2022/06/23 05:32:21;;;;;;;4.50;3.20;;;20.50;99.90;;;;;;5053084;28;20444;-56
2022/06/23 05:34:51;;;;;;;6.57;4.30;;;20.50;99.90;;;;;;5053194;28;20448;-57
2022/06/23 05:37:25;;;;;;;3.30;2.73;;;20.60;99.90;;;;;;5053275;28;20444;-58
2022/06/23 05:40:02;;;;;;;4.53;2.77;;;20.70;99.90;;;;;;5053172;28;20792;-57
2022/06/23 05:42:31;;;;;;;5.57;3.20;;;20.70;99.90;;;;;;5052957;28;20546;-56
2022/06/23 05:45:01;;;;;;;4.40;3.10;;;20.80;99.90;;;;;;5052893;28;20839;-58
2022/06/23 05:47:31;;;;;;;5.30;2.60;;;20.80;99.90;;;;;;5053088;28;20759;-56
2022/06/23 05:50:02;;;;;;;2.57;2.40;;;20.80;99.90;;;;;;5053069;28;20452;-56
2022/06/23 05:52:34;;;;;;;4.40;2.43;;;20.90;99.90;;;;;;5053063;28;20837;-55
2022/06/23 05:55:05;;;;;;;3.00;2.70;;;21.00;99.90;;;;;;5052929;28;20627;-56
2022/06/23 05:57:38;;;;;;;2.57;2.37;;;21.10;99.90;;;;;;5052691;28;20551;-57
2022/06/23 06:00:16;;;;;;;2.87;2.70;;;21.10;99.90;;;;;;5052976;28;20547;-58
2022/06/23 06:02:49;;;;;;;3.20;2.90;;;21.30;99.90;;;;;;5052836;28;20638;-57
2022/06/23 06:05:23;;;;;;;3.13;2.83;;;21.50;99.90;;;;;;5052818;28;20486;-57
2022/06/23 06:07:52;;;;;;;3.93;3.23;;;21.60;99.90;;;;;;5052885;28;20534;-58
2022/06/23 06:10:21;;;;;;;4.17;3.27;;;21.80;99.90;;;;;;5052262;28;20452;-58
2022/06/23 06:12:49;;;;;;;3.03;2.80;;;21.90;99.90;;;;;;5052677;28;20897;-58
2022/06/23 06:15:19;;;;;;;2.93;2.70;;;22.00;99.90;;;;;;5052698;28;20540;-58
2022/06/23 06:17:48;;;;;;;2.97;2.77;;;22.10;99.90;;;;;;5053013;28;20502;-58
2022/06/23 06:20:16;;;;;;;3.10;2.37;;;22.00;99.90;;;;;;5052674;28;20455;-57
2022/06/23 06:22:53;;;;;;;4.47;2.83;;;22.00;99.90;;;;;;5052516;28;20555;-58
2022/06/23 06:25:26;;;;;;;5.03;3.10;;;22.20;99.90;;;;;;5052500;28;20490;-59
2022/06/23 06:27:55;;;;;;;7.63;2.80;;;22.30;99.90;;;;;;5052513;28;20476;-58
2022/06/23 06:30:26;;;;;;;2.90;2.70;;;22.50;99.90;;;;;;5052585;28;20586;-58
2022/06/23 06:32:54;;;;;;;3.13;2.83;;;22.50;99.90;;;;;;5052485;28;20466;-59
2022/06/23 06:35:29;;;;;;;3.10;2.80;;;22.50;99.90;;;;;;5052331;28;21043;-58
2022/06/23 06:38:00;;;;;;;2.57;2.30;;;22.60;99.90;;;;;;5052607;28;20871;-59
2022/06/23 06:40:27;;;;;;;4.17;2.57;;;22.60;99.90;;;;;;5052539;28;20444;-58
2022/06/23 06:42:58;;;;;;;3.17;2.60;;;22.60;99.90;;;;;;5052121;28;20490;-57
2022/06/23 06:45:29;;;;;;;4.87;2.80;;;22.70;99.90;;;;;;5052304;28;20516;-59
2022/06/23 06:47:56;;;;;;;5.47;3.20;;;22.90;99.90;;;;;;5052826;28;20448;-58
2022/06/23 06:50:32;;;;;;;4.00;3.70;;;23.10;99.90;;;;;;5052211;28;20547;-58
2022/06/23 06:53:06;;;;;;;5.83;3.10;;;23.10;99.90;;;;;;5052504;28;20993;-53
2022/06/23 06:55:38;;;;;;;7.00;3.60;;;23.00;99.90;;;;;;5052113;28;20452;-56
2022/06/23 06:58:13;;;;;;;3.03;2.80;;;23.10;99.90;;;;;;5052109;28;20456;-57
2022/06/23 07:00:45;;;;;;;3.70;2.90;;;23.10;99.90;;;;;;5052122;28;21016;-59
2022/06/23 07:03:16;;;;;;;3.80;2.90;;;23.20;99.90;;;;;;5052590;28;20448;-58
2022/06/23 07:05:48;;;;;;;6.30;3.60;;;23.40;99.90;;;;;;5052167;28;20539;-58
2022/06/23 07:08:21;;;;;;;8.70;3.97;;;23.50;99.90;;;;;;5052384;28;20448;-56
2022/06/23 07:10:52;;;;;;;2.97;2.87;;;23.50;99.90;;;;;;5051901;28;20543;-57
2022/06/23 07:13:25;;;;;;;7.47;3.57;;;23.60;99.90;;;;;;5052170;28;20494;-57
2022/06/23 07:15:56;;;;;;;4.03;2.90;;;23.50;99.90;;;;;;5052091;28;20479;-59
2022/06/23 07:18:28;;;;;;;5.53;2.90;;;23.40;99.90;;;;;;5052060;28;20452;-50
2022/06/23 07:21:01;;;;;;;4.47;3.40;;;23.50;99.90;;;;;;5052094;28;20452;-57
2022/06/23 07:23:33;;;;;;;6.60;2.90;;;23.50;99.90;;;;;;5053689;28;20458;-57
2022/06/23 07:26:14;;;;;;;5.07;3.03;;;23.60;99.90;;;;;;5055566;28;20490;-55
2022/06/23 07:28:46;;;;;;;2.63;2.43;;;23.60;99.90;;;;;;5055682;28;20458;-52
2022/06/23 07:31:17;;;;;;;3.00;2.70;;;23.60;99.90;;;;;;5055525;28;21168;-54
2022/06/23 07:33:48;;;;;;;4.93;3.30;;;23.70;99.90;;;;;;5055514;28;20461;-60
2022/06/23 07:36:22;;;;;;;4.70;2.87;;;23.80;99.90;;;;;;5055531;28;20536;-59
2022/06/23 07:38:58;;;;;;;2.57;2.37;;;23.80;99.90;;;;;;5055335;28;20991;-59
2022/06/23 07:41:32;;;;;;;2.90;2.63;;;24.00;99.90;;;;;;5055242;28;20448;-56
2022/06/23 07:44:04;;;;;;;3.67;3.10;;;24.20;99.90;;;;;;5055087;28;20475;-59
2022/06/23 07:46:31;;;;;;;3.00;2.80;;;24.40;99.90;;;;;;5055294;28;20562;-56
2022/06/23 07:48:58;;;;;;;2.83;2.63;;;24.40;99.90;;;;;;5055165;28;20458;-58
2022/06/23 07:51:27;;;;;;;4.40;2.77;;;24.60;99.90;;;;;;5054846;28;20454;-54
2022/06/23 07:53:57;;;;;;;3.27;2.73;;;24.70;99.90;;;;;;5055181;28;20448;-55
2022/06/23 07:56:26;;;;;;;5.10;2.65;;;24.70;99.90;;;;;;5053898;28;20482;-58
2022/06/23 07:58:55;;;;;;;7.03;3.00;;;;;;;;;;5055062;28;20280;-58
2022/06/23 08:01:25;;;;;;;5.57;3.20;;;;;;;;;;5054713;28;20944;-58
2022/06/23 08:03:55;;;;;;;4.10;2.60;;;;;;;;;;5054889;28;20476;-59
2022/06/23 08:06:24;;;;;;;4.27;2.63;;;;;;;;;;5054712;28;20491;-58
2022/06/23 08:08:54;;;;;;;4.60;2.50;;;;;;;;;;5054727;28;20498;-56
2022/06/23 08:14:10;;;;;;;5.53;2.20;;;;;;;;;;5054650;28;20444;-58
2022/06/23 08:16:52;;;;;;;2.50;2.30;;;;;;;;;;5054440;28;20552;-55
2022/06/23 08:19:29;;;;;;;7.90;2.57;;;;;;;;;;5054412;28;20452;-57
2022/06/23 08:21:57;;;;;;;3.40;2.57;;;;;;;;;;5054547;28;20835;-56
2022/06/23 08:24:25;;;;;;;6.20;2.80;;;;;;;;;;5054506;28;20452;-56
2022/06/23 08:26:55;;;;;;;2.50;2.30;;;;;;;;;;5051514;28;20544;-58
2022/06/23 08:29:25;;;;;;;5.00;2.20;;;;;;;;;;5040552;28;20453;-58
2022/06/23 08:31:52;;;;;;;3.47;2.30;;;;;;;;;;5044272;28;20456;-58
2022/06/23 08:34:19;;;;;;;10.63;2.60;;;26.70;99.90;;;;;;5050646;28;21048;-60
2022/06/23 08:36:48;;;;;;;2.33;2.17;;;26.80;99.90;;;;;;5052197;28;20457;-59
2022/06/23 08:39:20;;;;;;;4.20;1.90;;;26.70;99.90;;;;;;5053782;28;20449;-60
2022/06/23 08:41:55;;;;;;;2.43;2.20;;;27.00;99.90;;;;;;5054121;28;20449;-59
2022/06/23 08:44:32;;;;;;;3.77;2.20;;;27.00;99.90;;;;;;5052754;28;20475;-59
2022/06/23 08:47:05;;;;;;;3.00;2.10;;;26.90;99.90;;;;;;5054054;28;20483;-60
2022/06/23 08:49:36;;;;;;;5.50;2.10;;;26.90;99.10;;;;;;5042097;28;20450;-60
2022/06/23 08:52:12;;;;;;;2.90;2.23;;;27.00;99.90;;;;;;5043264;28;20812;-59
2022/06/23 08:54:45;;;;;;;3.70;2.80;;;27.20;99.90;;;;;;5051953;28;20479;-60
2022/06/23 08:57:19;;;;;;;4.20;2.30;;;27.30;99.50;;;;;;5053554;28;20480;-53
2022/06/23 08:59:50;;;;;;;2.70;2.13;;;27.50;99.40;;;;;;5053423;28;20799;-56
2022/06/23 09:02:21;;;;;;;2.60;2.07;;;27.70;97.40;;;;;;5049431;28;20966;-58
2022/06/23 09:04:54;;;;;;;2.27;1.97;;;27.70;96.10;;;;;;5057516;28;20560;-60
2022/06/23 09:07:34;;;;;;;2.27;1.93;;;27.70;95.70;;;;;;5053404;28;20547;-60
2022/06/23 09:10:12;;;;;;;4.63;1.97;;;27.70;96.20;;;;;;5041862;28;20928;-59
2022/06/23 09:12:48;;;;;;;2.30;1.90;;;27.70;95.80;;;;;;5039590;28;20452;-59
2022/06/23 09:15:43;;;;;;;3.37;1.80;;;27.80;96.10;;;;;;5051372;28;20450;-58
2022/06/23 09:18:38;;;;;;;3.33;1.93;;;27.90;94.80;;;;;;5050547;28;20448;-57
2022/06/23 09:21:25;;;;;;;2.00;1.90;;;27.90;94.90;;;;;;5043363;28;20456;-57
2022/06/23 09:24:18;;;;;;;2.50;1.67;;;28.00;94.30;;;;;;5042919;28;20456;-58
2022/06/23 09:26:55;;;;;;;4.40;2.20;;;28.00;93.20;;;;;;5050824;28;20491;-59
2022/06/23 09:29:37;;;;;;;2.17;1.97;;;28.00;93.60;;;;;;5053251;28;20483;-59
2022/06/23 09:32:11;;;;;;;3.30;2.07;;;28.20;92.90;;;;;;5053103;28;20456;-59
2022/06/23 09:34:54;;;;;;;2.23;2.00;;;28.40;92.90;;;;;;5052092;28;20547;-59
2022/06/23 09:37:38;;;;;;;7.17;2.03;;;28.60;90.80;;;;;;5050653;28;20550;-56
2022/06/23 09:40:32;;;;;;;2.23;1.87;;;28.50;91.30;;;;;;5053090;28;20497;-57
2022/06/23 09:43:20;;;;;;;2.03;1.70;;;28.60;90.50;;;;;;5047258;28;20905;-57
2022/06/23 09:46:05;;;;;;;4.33;2.00;;;28.70;90.10;;;;;;5032562;28;20487;-58
2022/06/23 09:48:51;;;;;;;2.03;1.60;;;28.70;88.20;;;;;;5033147;28;20445;-59
2022/06/23 09:51:39;;;;;;;3.60;1.57;;;28.20;88.20;;;;;;5036553;28;20471;-56
2022/06/23 09:54:34;;;;;;;2.73;1.47;;;28.40;87.10;;;;;;5046525;28;20448;-60
2022/06/23 09:57:30;;;;;;;3.00;1.77;;;28.50;84.60;;;;;;5034383;28;20453;-60
2022/06/23 10:00:05;;;;;;;2.60;1.80;;;28.60;83.20;;;;;;5033299;28;20484;-57
2022/06/23 10:02:48;;;;;;;1.93;1.80;;;28.80;82.20;;;;;;5033297;28;20536;-59
2022/06/23 10:05:33;;;;;;;2.43;2.07;;;29.00;82.40;;;;;;5045534;28;20458;-59
2022/06/23 10:08:07;;;;;;;2.73;1.57;;;29.10;81.40;;;;;;5032982;28;20457;-59
2022/06/23 10:10:48;;;;;;;3.03;1.77;;;29.10;79.80;;;;;;5032895;28;20470;-59
2022/06/23 10:13:27;;;;;;;1.97;1.77;;;29.00;78.20;;;;;;5032911;28;20808;-59
2022/06/23 10:16:11;;;;;;;2.67;1.57;;;29.20;77.50;;;;;;5032711;28;20449;-59
2022/06/23 10:18:52;;;;;;;2.90;1.80;;;29.30;77.80;;;;;;5033057;28;20564;-59
2022/06/23 10:21:34;;;;;;;2.97;2.20;;;29.60;75.00;;;;;;5032878;28;20641;-59
2022/06/23 10:24:24;;;;;;;2.00;1.50;;;29.70;76.10;;;;;;5032737;28;20538;-59
2022/06/23 10:27:02;;;;;;;2.10;1.40;;;29.80;74.70;;;;;;5032929;28;20512;-59
2022/06/23 10:29:46;;;;;;;3.23;1.77;;;30.00;74.40;;;;;;5032803;28;20453;-59
2022/06/23 10:32:45;;;;;;;2.90;1.57;;;30.10;71.40;;;;;;5032765;28;20438;-59
2022/06/23 10:35:33;;;;;;;1.90;1.70;;;30.10;72.10;;;;;;5032801;28;20528;-59
2022/06/23 10:38:24;;;;;;;1.80;1.50;;;30.20;69.50;;;;;;5032729;28;20805;-59
2022/06/23 10:41:11;;;;;;;2.03;1.70;;;30.20;68.80;;;;;;5032708;28;20445;-60
2022/06/23 10:43:52;;;;;;;2.40;1.40;;;30.40;69.50;;;;;;5032653;28;20499;-60
2022/06/23 10:46:24;;;;;;;2.03;1.83;;;30.60;67.20;;;;;;5032801;28;20477;-60
2022/06/23 10:49:27;;;;;;;2.77;2.40;;;30.60;67.30;;;;;;5032470;28;20449;-59
2022/06/23 10:52:09;;;;;;;1.90;1.70;;;30.30;64.50;;;;;;5032612;28;20876;-60
2022/06/23 10:55:00;;;;;;;1.60;1.50;;;30.20;63.30;;;;;;5032542;28;20857;-59
2022/06/23 10:57:50;;;;;;;1.80;1.60;;;30.30;64.30;;;;;;5034086;28;20449;-59
2022/06/23 11:00:19;;;;;;;1.60;1.50;;;30.50;66.00;;;;;;5036392;28;20484;-59
2022/06/23 11:03:28;;;;;;;1.87;1.77;;;30.60;65.10;;;;;;5036203;28;20451;-60
2022/06/23 11:06:13;;;;;;;1.93;1.83;;;30.30;65.20;;;;;;5035928;28;20484;-59
2022/06/23 11:09:01;;;;;;;2.33;1.37;;;30.20;64.80;;;;;;5036140;28;20885;-59
2022/06/23 11:11:40;;;;;;;1.70;1.60;;;30.50;64.40;;;;;;5036092;28;20535;-59
2022/06/23 11:14:18;;;;;;;2.37;1.80;;;30.50;62.30;;;;;;5035885;28;20449;-59
2022/06/23 11:16:51;;;;;;;1.73;1.27;;;30.60;62.10;;;;;;5036117;28;21029;-59
2022/06/23 11:19:34;;;;;;;2.30;1.50;;;30.70;57.80;;;;;;5035902;28;20547;-59
2022/06/23 11:22:16;;;;;;;1.70;1.60;;;30.60;57.60;;;;;;5035800;28;20543;-59
2022/06/23 11:24:56;;;;;;;2.07;1.60;;;31.00;59.50;;;;;;5035574;28;20525;-60
2022/06/23 11:27:37;;;;;;;2.17;1.50;;;30.90;58.90;;;;;;5035603;28;20485;-59
2022/06/23 11:30:14;;;;;;;1.60;1.50;;;31.20;60.70;;;;;;5035547;28;20449;-60
2022/06/23 11:32:52;;;;;;;3.90;1.70;;;31.10;59.60;;;;;;5035655;28;20464;-60
2022/06/23 11:35:32;;;;;;;2.93;1.83;;;31.30;59.50;;;;;;5035495;28;20889;-60
2022/06/23 11:38:16;;;;;;;2.10;1.60;;;31.50;61.20;;;;;;5035480;28;20445;-60
2022/06/23 11:41:03;;;;;;;1.87;1.77;;;31.70;61.30;;;;;;5035542;28;20804;-59
2022/06/23 11:43:44;;;;;;;1.80;1.70;;;31.60;62.40;;;;;;5035105;28;20584;-59
2022/06/23 11:46:23;;;;;;;2.03;1.63;;;31.20;62.40;;;;;;5035533;28;20477;-59
2022/06/23 11:49:03;;;;;;;2.27;2.07;;;30.70;62.70;;;;;;5035390;28;20480;-59
2022/06/23 11:51:55;;;;;;;1.83;1.73;;;30.80;64.10;;;;;;5035256;28;20816;-59
2022/06/23 11:54:42;;;;;;;1.83;1.60;;;31.00;64.30;;;;;;5035354;28;20449;-60
2022/06/23 11:57:28;;;;;;;1.90;1.80;;;30.90;61.20;;;;;;5035229;28;20449;-59
2022/06/23 12:00:02;;;;;;;4.80;1.77;;;30.80;59.80;;;;;;5035263;28;20857;-59
2022/06/23 12:02:29;;;;;;;1.70;1.60;;;30.60;62.10;;;;;;5035338;28;20532;-59
2022/06/23 12:05:07;;;;;;;4.07;1.80;;;30.80;60.50;;;;;;5035121;28;20476;-59
2022/06/23 12:08:04;;;;;;;1.97;1.50;;;31.00;59.80;;;;;;5034916;28;20491;-59
2022/06/23 12:10:35;;;;;;;1.80;1.50;;;31.00;59.90;;;;;;5034363;28;20536;-60
2022/06/23 12:13:05;;;;;;;7.97;1.93;;;31.00;59.20;;;;;;5034918;28;20892;-59
2022/06/23 12:15:34;;;;;;;2.50;1.57;;;31.10;60.10;;;;;;5034741;28;20861;-60
2022/06/23 12:18:08;;;;;;;1.97;1.77;;;31.30;60.70;;;;;;5034669;28;20453;-59
2022/06/23 12:20:45;;;;;;;2.00;1.80;;;31.40;59.60;;;;;;5034804;28;20544;-60
2022/06/23 12:23:16;;;;;;;2.40;1.73;;;31.70;61.60;;;;;;5034573;28;20484;-59
2022/06/23 12:25:51;;;;;;;1.97;1.77;;;31.40;60.30;;;;;;5034706;28;20960;-60
2022/06/23 12:28:26;;;;;;;5.73;2.93;;;31.30;62.20;;;;;;5034544;28;20453;-60
2022/06/23 12:30:58;;;;;;;5.23;1.90;;;31.50;60.50;;;;;;5034678;28;20451;-60
2022/06/23 12:33:33;;;;;;;1.63;1.50;;;31.80;60.30;;;;;;5034377;28;20449;-60
2022/06/23 12:36:08;;;;;;;2.47;1.73;;;32.10;59.50;;;;;;5034604;28;20539;-60
2022/06/23 12:38:41;;;;;;;3.23;1.90;;;32.00;59.20;;;;;;5034292;28;20975;-60
2022/06/23 12:41:13;;;;;;;2.13;1.60;;;32.00;59.80;;;;;;5034180;28;20463;-60
2022/06/23 12:43:48;;;;;;;1.90;1.73;;;32.20;59.00;;;;;;5034084;28;20937;-60
2022/06/23 12:46:23;;;;;;;1.67;1.57;;;31.80;59.30;;;;;;5033931;28;20537;-59
2022/06/23 12:49:07;;;;;;;2.00;1.90;;;31.30;59.20;;;;;;5034311;28;20449;-60
2022/06/23 12:51:42;;;;;;;1.97;1.73;;;31.60;58.40;;;;;;5034248;28;20536;-60
2022/06/23 12:54:23;;;;;;;2.30;1.90;;;31.50;58.20;;;;;;5034086;28;20498;-60
2022/06/23 12:57:02;;;;;;;1.83;1.43;;;31.40;58.10;;;;;;5033996;28;20456;-60
2022/06/23 12:59:39;;;;;;;2.70;1.67;;;31.30;58.70;;;;;;5051480;28;20493;-60
2022/06/23 13:02:12;;;;;;;2.40;1.63;;;31.30;58.50;;;;;;5051340;28;20448;-59
2022/06/23 13:04:46;;;;;;;2.50;1.63;;;31.50;57.90;;;;;;5051839;28;20449;-58
2022/06/23 13:07:20;;;;;;;1.60;1.50;;;31.70;57.00;;;;;;5053826;28;20488;-57
2022/06/23 13:09:53;;;;;;;1.60;1.50;;;31.50;57.50;;;;;;5052488;28;20452;-57
2022/06/23 13:12:26;;;;;;;1.70;1.60;;;31.60;57.40;;;;;;5049013;28;20459;-57
2022/06/23 13:15:00;;;;;;;1.50;1.20;;;31.60;57.20;;;;;;5052211;28;20539;-59
2022/06/23 13:17:34;;;;;;;1.63;1.53;;;31.80;56.80;;;;;;5059649;28;20542;-56
2022/06/23 13:20:09;;;;;;;2.57;1.90;;;31.70;56.10;;;;;;5048692;28;20624;-56
2022/06/23 13:22:46;;;;;;;3.80;1.90;;;31.60;55.70;;;;;;5033383;28;20440;-57
2022/06/23 13:25:17;;;;;;;1.70;1.60;;;31.60;56.60;;;;;;5048334;28;20456;-59
2022/06/23 13:27:48;;;;;;;2.20;2.00;;;31.50;56.30;;;;;;5050661;28;20991;-59
2022/06/23 13:30:20;;;;;;;1.47;1.20;;;31.40;55.50;;;;;;5052140;28;20445;-60
2022/06/23 13:33:01;;;;;;;1.53;1.43;;;31.50;56.90;;;;;;5053251;28;20451;-60
2022/06/23 13:35:35;;;;;;;2.87;1.33;;;31.40;55.60;;;;;;5067789;28;20455;-59
2022/06/23 13:38:19;;;;;;;3.90;1.30;;;31.20;55.20;;;;;;5033174;28;20481;-59
2022/06/23 13:40:51;;;;;;;1.93;1.70;;;31.30;56.30;;;;;;5032942;28;20532;-59